createdAt,value
2023-03-26T00:03:20.925Z,94140.00
2023-03-26T00:07:20.898Z,94142.00
2023-03-26T00:11:20.881Z,94138.00
2023-03-26T00:15:20.905Z,94138.00
2023-03-26T00:19:20.813Z,94138.00
2023-03-26T00:23:20.763Z,94138.00
2023-03-26T00:27:20.740Z,94125.00
2023-03-26T00:31:20.953Z,94127.00
2023-03-26T00:35:20.901Z,94113.00
2023-03-26T00:39:20.816Z,94111.00
2023-03-26T00:43:20.763Z,94117.00
2023-03-26T00:47:20.742Z,94123.00
2023-03-26T00:51:20.748Z,94113.00
2023-03-26T00:55:20.660Z,94105.00
2023-03-26T00:59:20.632Z,94095.00
2023-03-26T01:03:27.683Z,94093.00
2023-03-26T01:07:21.578Z,94086.00
2023-03-26T01:11:20.540Z,94088.00
2023-03-26T01:15:20.662Z,94091.00
2023-03-26T01:19:20.655Z,94097.00
2023-03-26T01:23:20.610Z,94095.00
2023-03-26T01:27:20.575Z,94090.00
2023-03-26T01:31:20.543Z,94080.00
2023-03-26T01:35:20.535Z,94076.00
2023-03-26T01:39:20.475Z,94070.00
2023-03-26T01:43:20.440Z,94070.00
2023-03-26T01:47:20.418Z,94074.00
2023-03-26T01:51:20.371Z,94074.00
2023-03-26T01:55:20.436Z,94066.00
2023-03-26T01:59:20.414Z,94074.00
2023-03-26T02:03:20.512Z,94078.00
2023-03-26T02:07:20.336Z,94082.00
2023-03-26T02:11:21.581Z,94086.00
2023-03-26T02:15:20.292Z,94082.00
2023-03-26T02:19:20.372Z,94076.00
2023-03-26T02:23:20.188Z,94080.00
2023-03-26T02:27:20.172Z,94072.00
2023-03-26T02:31:20.164Z,94066.00
2023-03-26T02:35:20.207Z,94062.00
2023-03-26T02:39:20.158Z,94068.00
2023-03-26T02:43:20.038Z,94064.00
2023-03-26T02:47:19.989Z,94068.00
2023-03-26T02:51:20.167Z,94068.00
2023-03-26T02:55:20.093Z,94062.00
2023-03-26T02:59:20.056Z,94052.00
2023-03-26T03:03:20.105Z,94056.00
2023-03-26T03:07:19.999Z,94048.00
2023-03-26T03:11:19.948Z,94036.00
2023-03-26T03:15:19.917Z,94029.00
2023-03-26T03:19:19.882Z,94029.00
2023-03-26T03:23:19.857Z,94019.00
2023-03-26T03:27:19.830Z,94009.00
2023-03-26T03:31:19.848Z,94003.00
2023-03-26T03:35:19.827Z,94001.00
2023-03-26T03:39:19.753Z,94007.00
2023-03-26T03:43:19.698Z,94007.00
2023-03-26T03:47:19.680Z,94001.00
2023-03-26T03:51:19.634Z,94001.00
2023-03-26T03:55:19.617Z,93992.00
2023-03-26T03:59:19.567Z,93996.00
2023-03-26T04:03:19.745Z,93999.00
2023-03-26T04:07:20.523Z,93990.00
2023-03-26T04:11:19.503Z,93988.00
2023-03-26T04:15:19.630Z,93988.00
2023-03-26T04:19:19.627Z,93986.00
2023-03-26T04:23:19.573Z,93982.00
2023-03-26T04:27:19.577Z,93974.00
2023-03-26T04:31:19.537Z,93972.00
2023-03-26T04:35:19.514Z,93964.00
2023-03-26T04:39:19.484Z,93966.00
2023-03-26T04:43:19.443Z,93956.00
2023-03-26T04:47:19.374Z,93944.00
2023-03-26T04:51:19.329Z,93939.00
2023-03-26T04:55:19.334Z,93933.00
2023-03-26T04:59:19.272Z,93923.00
2023-03-26T05:03:19.236Z,93921.00
2023-03-26T05:07:19.489Z,93921.00
2023-03-26T05:11:19.434Z,93929.00
2023-03-26T05:15:19.426Z,93937.00
2023-03-26T05:19:19.348Z,93935.00
2023-03-26T05:23:19.331Z,93935.00
2023-03-26T05:27:19.314Z,93933.00
2023-03-26T05:31:19.266Z,93921.00
2023-03-26T05:35:19.332Z,93923.00
2023-03-26T05:39:19.216Z,93917.00
2023-03-26T05:43:19.187Z,93901.00
2023-03-26T05:47:19.346Z,93897.00
2023-03-26T05:51:19.311Z,93890.00
2023-03-26T05:55:19.293Z,93880.00
2023-03-26T05:59:19.255Z,93882.00
2023-03-26T06:03:19.385Z,93892.00
2023-03-26T06:07:19.199Z,93882.00
2023-03-26T06:11:19.187Z,93880.00
2023-03-26T06:15:19.120Z,93886.00
2023-03-26T06:19:19.088Z,93870.00
2023-03-26T06:23:19.070Z,93870.00
2023-03-26T06:27:19.011Z,93868.00
2023-03-26T06:31:19.271Z,93872.00
2023-03-26T06:35:19.383Z,93868.00
2023-03-26T06:39:19.599Z,93862.00
2023-03-26T06:43:19.787Z,93850.00
2023-03-26T06:47:20.034Z,93837.00
2023-03-26T06:51:20.200Z,93839.00
2023-03-26T06:55:20.343Z,93823.00
2023-03-26T06:59:20.519Z,93813.00
2023-03-26T07:03:20.720Z,93796.00
2023-03-26T07:07:20.880Z,93786.00
2023-03-26T07:11:21.066Z,93774.00
2023-03-26T07:15:21.182Z,93772.00
2023-03-26T07:19:21.348Z,93770.00
2023-03-26T07:23:21.387Z,93776.00
2023-03-26T07:27:21.461Z,93786.00
2023-03-26T07:31:21.567Z,93786.00
2023-03-26T07:35:21.654Z,93788.00
2023-03-26T07:39:21.704Z,93770.00
2023-03-26T07:43:21.764Z,93751.00
2023-03-26T07:47:21.843Z,93731.00
2023-03-26T07:51:21.895Z,93713.00
2023-03-26T07:55:21.936Z,93694.00
2023-03-26T07:59:21.983Z,93676.00
2023-03-26T08:03:22.078Z,93661.00
2023-03-26T08:07:22.076Z,93655.00
2023-03-26T08:11:22.103Z,93651.00
2023-03-26T08:15:22.082Z,93651.00
2023-03-26T08:19:22.098Z,93645.00
2023-03-26T08:23:22.103Z,93627.00
2023-03-26T08:27:22.092Z,93610.00
2023-03-26T08:31:22.100Z,93602.00
2023-03-26T08:35:22.082Z,93602.00
2023-03-26T08:39:22.115Z,93592.00
2023-03-26T08:43:22.297Z,93588.00
2023-03-26T08:47:22.261Z,93590.00
2023-03-26T08:51:22.237Z,93584.00
2023-03-26T08:55:22.198Z,93582.00
2023-03-26T08:59:22.143Z,93582.00
2023-03-26T09:03:22.117Z,93584.00
2023-03-26T09:07:22.087Z,93598.00
2023-03-26T09:11:22.056Z,93606.00
2023-03-26T09:15:22.031Z,93610.00
2023-03-26T09:19:22.015Z,93610.00
2023-03-26T09:23:21.953Z,93598.00
2023-03-26T09:27:21.928Z,93596.00
2023-03-26T09:31:21.886Z,93590.00
2023-03-26T09:35:21.895Z,93574.00
2023-03-26T09:39:21.833Z,93569.00
2023-03-26T09:43:21.779Z,93557.00
2023-03-26T09:47:21.763Z,93537.00
2023-03-26T09:51:21.723Z,93516.00
2023-03-26T09:55:21.689Z,93516.00
2023-03-26T09:59:21.694Z,93510.00
2023-03-26T10:03:21.740Z,93502.00
2023-03-26T10:07:21.744Z,93500.00
2023-03-26T10:11:21.891Z,93490.00
2023-03-26T10:15:23.947Z,93490.00
2023-03-26T10:19:22.029Z,93492.00
2023-03-26T10:23:21.989Z,93498.00
2023-03-26T10:27:24.322Z,93502.00
2023-03-26T10:31:22.037Z,93506.00
2023-03-26T10:35:21.915Z,93506.00
2023-03-26T10:39:37.304Z,93502.00
2023-03-26T10:43:22.810Z,93496.00
2023-03-26T10:47:21.816Z,93492.00
2023-03-26T10:51:21.745Z,93492.00
2023-03-26T10:55:23.606Z,93490.00
2023-03-26T10:59:21.683Z,93486.00
2023-03-26T11:03:21.644Z,93484.00
2023-03-26T11:07:21.626Z,93484.00
2023-03-26T11:11:21.571Z,93480.00
2023-03-26T11:15:21.548Z,93470.00
2023-03-26T11:19:21.509Z,93478.00
2023-03-26T11:23:21.493Z,93480.00
2023-03-26T11:27:23.730Z,93490.00
2023-03-26T11:31:21.473Z,93482.00
2023-03-26T11:35:39.769Z,93467.00
2023-03-26T11:39:22.350Z,93467.00
2023-03-26T11:43:21.320Z,93467.00
2023-03-26T11:47:21.287Z,93461.00
2023-03-26T11:51:21.273Z,93455.00
2023-03-26T11:55:21.206Z,93453.00
2023-03-26T11:59:21.815Z,93449.00
2023-03-26T12:03:21.240Z,93443.00
2023-03-26T12:07:21.218Z,93433.00
2023-03-26T12:11:21.298Z,93426.00
2023-03-26T12:15:21.354Z,93414.00
2023-03-26T12:19:21.406Z,93414.00
2023-03-26T12:23:21.484Z,93418.00
2023-03-26T12:27:21.592Z,93421.00
2023-03-26T12:31:21.659Z,93431.00
2023-03-26T12:35:21.752Z,93453.00
2023-03-26T12:40:11.853Z,93449.00
2023-03-26T12:44:54.028Z,93451.00
2023-03-26T12:47:59.919Z,93463.00
2023-03-26T12:51:22.767Z,93472.00
2023-03-26T12:55:21.754Z,93465.00
2023-03-26T12:59:21.745Z,93465.00
2023-03-26T13:03:22.020Z,93459.00
2023-03-26T13:07:21.648Z,93455.00
2023-03-26T13:11:21.594Z,93461.00
2023-03-26T13:15:21.560Z,93447.00
2023-03-26T13:19:21.534Z,93443.00
2023-03-26T13:23:21.566Z,93437.00
2023-03-26T13:27:21.709Z,93439.00
2023-03-26T13:31:21.971Z,93433.00
2023-03-26T13:35:22.061Z,93429.00
2023-03-26T13:39:22.204Z,93426.00
2023-03-26T13:43:22.373Z,93428.00
2023-03-26T13:47:22.561Z,93428.00
2023-03-26T13:51:22.732Z,93423.00
2023-03-26T13:55:22.913Z,93420.00
2023-03-26T13:59:23.095Z,93416.00
2023-03-26T14:03:23.331Z,93418.00
2023-03-26T14:07:23.460Z,93429.00
2023-03-26T14:11:23.652Z,93437.00
2023-03-26T14:15:23.843Z,93435.00
2023-03-26T14:19:24.032Z,93435.00
2023-03-26T14:23:24.255Z,93433.00
2023-03-26T14:27:24.443Z,93435.00
2023-03-26T14:31:24.641Z,93428.00
2023-03-26T14:35:24.825Z,93418.00
2023-03-26T14:39:24.980Z,93412.00
2023-03-26T14:43:25.184Z,93398.00
2023-03-26T14:47:25.584Z,93404.00
2023-03-26T14:51:25.590Z,93414.00
2023-03-26T14:55:25.591Z,93426.00
2023-03-26T14:59:25.715Z,93428.00
2023-03-26T15:03:25.968Z,93420.00
2023-03-26T15:07:26.143Z,93420.00
2023-03-26T15:11:26.339Z,93428.00
2023-03-26T15:15:26.550Z,93423.00
2023-03-26T15:19:26.771Z,93423.00
2023-03-26T15:23:26.960Z,93412.00
2023-03-26T15:27:27.157Z,93420.00
2023-03-26T15:31:27.379Z,93400.00
2023-03-26T15:35:27.486Z,93379.00
2023-03-26T15:39:27.770Z,93367.00
2023-03-26T15:43:27.883Z,93379.00
2023-03-26T15:47:28.116Z,93375.00
2023-03-26T15:51:28.553Z,93353.00
2023-03-26T15:55:28.361Z,93359.00
2023-03-26T15:59:28.432Z,93351.00
2023-03-26T16:03:28.634Z,93347.00
2023-03-26T16:07:28.846Z,93351.00
2023-03-26T16:11:29.064Z,93341.00
2023-03-26T16:15:29.316Z,93337.00
2023-03-26T16:19:29.483Z,93343.00
2023-03-26T16:23:29.698Z,93336.00
2023-03-26T16:27:29.913Z,93330.00
2023-03-26T16:31:38.225Z,93318.00
2023-03-26T16:35:31.109Z,93308.00
2023-03-26T16:39:30.043Z,93302.00
2023-03-26T16:43:30.186Z,93296.00
2023-03-26T16:47:30.202Z,93292.00
2023-03-26T16:51:30.131Z,93279.00
2023-03-26T16:55:30.087Z,93281.00
2023-03-26T16:59:30.077Z,93287.00
2023-03-26T17:03:30.197Z,93294.00
2023-03-26T17:07:30.002Z,93285.00
2023-03-26T17:11:29.966Z,93292.00
2023-03-26T17:15:29.922Z,93287.00
2023-03-26T17:19:29.883Z,93298.00
2023-03-26T17:23:29.880Z,93304.00
2023-03-26T17:27:29.936Z,93290.00
2023-03-26T17:31:29.989Z,93314.00
2023-03-26T17:35:29.880Z,93336.00
2023-03-26T17:39:29.871Z,93328.00
2023-03-26T17:43:29.816Z,93328.00
2023-03-26T17:47:29.808Z,93324.00
2023-03-26T17:51:29.768Z,93341.00
2023-03-26T17:55:29.746Z,93367.00
2023-03-26T17:59:29.689Z,93369.00
2023-03-26T18:03:31.005Z,93386.00
2023-03-26T18:07:29.758Z,93375.00
2023-03-26T18:11:29.710Z,93359.00
2023-03-26T18:15:29.672Z,93353.00
2023-03-26T18:19:29.639Z,93351.00
2023-03-26T18:23:29.609Z,93330.00
2023-03-26T18:27:29.553Z,93318.00
2023-03-26T18:31:29.568Z,93334.00
2023-03-26T18:35:29.576Z,93341.00
2023-03-26T18:39:29.465Z,93332.00
2023-03-26T18:43:34.885Z,93322.00
2023-03-26T18:47:30.503Z,93314.00
2023-03-26T18:51:31.689Z,93306.00
2023-03-26T18:55:29.331Z,93308.00
2023-03-26T18:59:29.292Z,93314.00
2023-03-26T19:03:29.334Z,93318.00
2023-03-26T19:07:29.242Z,93326.00
2023-03-26T19:11:29.202Z,93337.00
2023-03-26T19:15:29.152Z,93337.00
2023-03-26T19:19:29.134Z,93347.00
2023-03-26T19:23:29.106Z,93371.00
2023-03-26T19:27:29.064Z,93359.00
2023-03-26T19:31:29.084Z,93359.00
2023-03-26T19:35:29.006Z,93367.00
2023-03-26T19:39:37.061Z,93371.00
2023-03-26T19:43:29.971Z,93359.00
2023-03-26T19:47:43.176Z,93357.00
2023-03-26T19:51:29.870Z,93351.00
2023-03-26T19:55:28.835Z,93339.00
2023-03-26T19:59:28.805Z,93336.00
2023-03-26T20:03:29.028Z,93336.00
2023-03-26T20:07:35.284Z,93343.00
2023-03-26T20:11:29.709Z,93336.00
2023-03-26T20:15:28.693Z,93337.00
2023-03-26T20:19:28.869Z,93334.00
2023-03-26T20:23:28.972Z,93343.00
2023-03-26T20:27:28.780Z,93347.00
2023-03-26T20:31:28.739Z,93343.00
2023-03-26T20:35:35.981Z,93341.00
2023-03-26T20:39:29.685Z,93341.00
2023-03-26T20:43:28.639Z,93341.00
2023-03-26T20:47:28.749Z,93337.00
2023-03-26T20:51:29.236Z,93339.00
2023-03-26T20:55:29.120Z,93339.00
2023-03-26T20:59:29.144Z,93337.00
2023-03-26T21:03:29.101Z,93341.00
2023-03-26T21:07:29.019Z,93337.00
2023-03-26T21:11:28.994Z,93341.00
2023-03-26T21:15:28.964Z,93347.00
2023-03-26T21:19:28.926Z,93343.00
2023-03-26T21:23:28.884Z,93345.00
2023-03-26T21:27:28.860Z,93341.00
2023-03-26T21:31:28.839Z,93339.00
2023-03-26T21:35:28.837Z,93330.00
2023-03-26T21:39:28.759Z,93330.00
2023-03-26T21:43:28.715Z,93326.00
2023-03-26T21:47:28.832Z,93324.00
2023-03-26T21:51:28.939Z,93324.00
2023-03-26T21:55:29.072Z,93330.00
2023-03-26T21:59:29.179Z,93332.00
2023-03-26T22:03:29.297Z,93334.00
2023-03-26T22:07:29.341Z,93332.00
2023-03-26T22:11:29.456Z,93336.00
2023-03-26T22:15:29.563Z,93336.00
2023-03-26T22:19:30.461Z,93324.00
2023-03-26T22:23:29.898Z,93320.00
2023-03-26T22:27:30.065Z,93326.00
2023-03-26T22:31:30.264Z,93318.00
2023-03-26T22:35:30.441Z,93322.00
2023-03-26T22:39:30.509Z,93310.00
2023-03-26T22:43:30.629Z,93310.00
2023-03-26T22:47:30.815Z,93310.00
2023-03-26T22:51:30.901Z,93310.00
2023-03-26T22:55:31.097Z,93306.00
2023-03-26T22:59:31.201Z,93298.00
2023-03-26T23:03:35.056Z,93302.00
2023-03-26T23:07:31.221Z,93296.00
2023-03-26T23:11:31.219Z,93290.00
2023-03-26T23:15:31.163Z,93300.00
2023-03-26T23:19:31.113Z,93304.00
2023-03-26T23:23:31.080Z,93300.00
2023-03-26T23:27:31.062Z,93298.00
2023-03-26T23:31:31.189Z,93290.00
2023-03-26T23:35:31.285Z,93290.00
2023-03-26T23:39:31.394Z,93283.00
2023-03-26T23:43:31.434Z,93275.00
2023-03-26T23:47:31.601Z,93275.00
2023-03-26T23:51:31.670Z,93279.00
2023-03-26T23:55:31.743Z,93281.00
2023-03-26T23:59:31.785Z,93283.00
